Ambler, PA (19002)

5:34 PM EDT on July 29, 2016 (GMT -0400)
Horsham, PA | | Change Station

Elev 315 ft 40.19 °N, 75.18 °W | Updated 10 minutes ago

Scattered Clouds
Scattered Clouds
99.9 °F
Feels Like 109 °F
N
1.7
Wind Variable Wind from West

Today
High -- | Low -- °F
--% Chance of Precip.
Yesterday
High -- | Low -- °F
Precip. -- in
Pressure 29.85 in
Visibility 10.0 miles
Clouds Scattered Clouds 4900 ft
Heat Index 109 °F
Dew Point 71 °F
Humidity 40%
Rainfall 0.00 in
Snow Depth Not available.
5:56 AM 8:17 PM
Waning Crescent, 19% visible
METAR KLOM 292115Z AUTO 00000KT 10SM SCT049 29/20 A2985 RMK AO1
Pressure 29.85 in
Visibility 10.0 miles
Clouds Scattered Clouds 4900 ft
Heat Index 109 °F
Dew Point 71 °F
Humidity 40%
Rainfall 0.00 in
Snow Depth Not available.
5:56 AM 8:17 PM
Waning Crescent, 19% visible
METAR KLOM 292115Z AUTO 00000KT 10SM SCT049 29/20 A2985 RMK AO1

10-Day Weather Forecast

Almanac

Astronomy

Jul. 29, 2016 Rise Set
Actual Time
Civil Twilight
Nautical Twilight
Astronomical Twilight
Moon
Length of Visible Light
Length of Day
Tomorrow will be .
, % of the Moon is Illuminated

Today's Extremes

State Highs State Lows

Community

WunderPhotos

Upload Photos

1,928,423 photos uploaded!

WunderBlog® & News

Nearby

Air Quality

  Air Quality AQ Index Pollutant
Not available.

Snow Depth

Station Depth Elevation

Earthquake Activity

City Distance Mag. Time & Date
Minimum magnitude displayed is 2.5.

Coastal Water Temperatures

Place Temperature

Stations

Nearby Weather Stations

Station Location Temp. Windchill Dew Point Humidity Wind Precip. Elev Updated Type
                   

Watches & Warnings

There are currently no watches in effect.